createdAt,value
2016-04-19T00:00:53.889Z,67.7
2016-04-19T00:01:53.908Z,67.89
2016-04-19T00:02:53.925Z,67.8
2016-04-19T00:03:53.928Z,66.94
2016-04-19T00:04:53.946Z,67.32
2016-04-19T00:05:53.949Z,67.32
2016-04-19T00:06:53.968Z,67.7
2016-04-19T00:07:53.985Z,67.7
2016-04-19T00:08:54.005Z,67.51
2016-04-19T00:09:54.007Z,67.61
2016-04-19T00:10:54.024Z,67.41
2016-04-19T00:11:54.090Z,67.03
2016-04-19T00:12:54.062Z,67.8
2016-04-19T00:13:54.065Z,67.13
2016-04-19T00:14:54.082Z,67.41
2016-04-19T00:15:54.101Z,67.51
2016-04-19T00:16:54.103Z,67.8
2016-04-19T00:17:54.138Z,67.03
2016-04-19T00:18:54.140Z,67.51
2016-04-19T00:19:54.173Z,67.7
2016-04-19T00:20:54.176Z,67.51
2016-04-19T00:21:54.176Z,67.51
2016-04-19T00:22:54.210Z,68.08
2016-04-19T00:23:54.196Z,67.89
2016-04-19T00:24:54.230Z,67.8
2016-04-19T00:25:54.233Z,68.27
2016-04-19T00:26:54.251Z,67.7
2016-04-19T00:27:54.271Z,67.61
2016-04-19T00:28:54.273Z,67.99
2016-04-19T00:29:54.290Z,68.27
2016-04-19T00:30:54.341Z,68.08
2016-04-19T00:31:54.312Z,68.56
2016-04-19T00:32:54.346Z,67.89
2016-04-19T00:33:54.365Z,68.75
2016-04-19T00:34:54.367Z,67.7
2016-04-19T00:35:54.385Z,67.41
2016-04-19T00:36:54.403Z,67.32
2016-04-19T00:37:54.406Z,67.13
2016-04-19T00:38:54.424Z,67.99
2016-04-19T00:39:54.443Z,67.51
2016-04-19T00:40:54.445Z,67.7
2016-04-19T00:41:54.464Z,67.99
2016-04-19T00:42:54.467Z,68.18
2016-04-19T00:43:54.486Z,67.51
2016-04-19T00:45:08.613Z,67.51
2016-04-19T00:45:54.522Z,67.7
2016-04-19T00:46:54.524Z,67.8
2016-04-19T00:47:54.558Z,67.13
2016-04-19T00:48:54.608Z,67.61
2016-04-19T00:49:54.580Z,67.51
2016-04-19T00:50:54.597Z,67.61
2016-04-19T00:51:54.600Z,67.51
2016-04-19T00:52:54.618Z,68.56
2016-04-19T00:53:54.637Z,67.89
2016-04-19T00:54:54.639Z,67.7
2016-04-19T00:55:54.657Z,68.56
2016-04-19T00:56:54.677Z,68.27
2016-04-19T00:57:54.679Z,68.18
2016-04-19T00:58:54.697Z,68.84
2016-04-19T00:59:54.699Z,68.65
2016-04-19T01:00:54.734Z,67.89
2016-04-19T01:01:54.737Z,67.8
2016-04-19T01:02:54.755Z,68.37
2016-04-19T01:03:54.773Z,67.89
2016-04-19T01:04:54.792Z,68.08
2016-04-19T01:05:54.795Z,68.81
2016-04-19T01:06:54.813Z,68.24
2016-04-19T01:07:54.815Z,68.71
2016-04-19T01:08:54.834Z,68.71
2016-04-19T01:09:54.851Z,69.51
2016-04-19T01:10:54.870Z,68.71
2016-04-19T01:11:54.873Z,68.71
2016-04-19T01:12:54.892Z,68.81
2016-04-19T01:13:54.909Z,69.76
2016-04-19T01:14:54.912Z,69.38
2016-04-19T01:15:54.931Z,70.43
2016-04-19T01:16:54.949Z,70.05
2016-04-19T01:17:54.967Z,68.52
2016-04-19T01:18:54.970Z,69.48
2016-04-19T01:19:54.988Z,69.85
2016-04-19T01:20:54.991Z,69.29
2016-04-19T01:21:55.009Z,69.57
2016-04-19T01:22:55.027Z,69.67
2016-04-19T01:23:55.030Z,70.14
2016-04-19T01:24:55.080Z,70.52
2016-04-19T01:25:55.066Z,70.43
2016-04-19T01:26:55.085Z,70.14
2016-04-19T01:27:55.088Z,70.05
2016-04-19T01:28:55.122Z,69.85
2016-04-19T01:29:55.140Z,70.52
2016-04-19T01:30:55.158Z,69.95
2016-04-19T01:31:55.145Z,70.43
2016-04-19T01:32:55.179Z,69.57
2016-04-19T01:33:55.166Z,69.67
2016-04-19T01:34:55.216Z,69.95
2016-04-19T01:35:55.203Z,70.14
2016-04-19T01:36:55.221Z,69.57
2016-04-19T01:37:55.239Z,69.67
2016-04-19T01:38:55.274Z,70.24
2016-04-19T01:39:55.261Z,69.85
2016-04-19T01:40:55.279Z,69.48
2016-04-19T01:41:55.297Z,69.38
2016-04-19T01:42:55.300Z,70.43
2016-04-19T01:43:55.303Z,69.76
2016-04-19T01:44:55.320Z,69.95
2016-04-19T01:45:55.339Z,70.43
2016-04-19T01:46:55.358Z,69.95
2016-04-19T01:47:55.376Z,69.19
2016-04-19T01:48:55.378Z,68.81
2016-04-19T01:49:55.381Z,68.71
2016-04-19T01:50:55.399Z,68.62
2016-04-19T01:51:55.419Z,69.95
2016-04-19T01:52:55.435Z,69.57
2016-04-19T01:53:55.438Z,69.19
2016-04-19T01:54:55.458Z,68.71
2016-04-19T01:55:55.475Z,69.19
2016-04-19T01:56:55.478Z,68.52
2016-04-19T01:57:55.496Z,68.71
2016-04-19T01:58:54.765Z,68.81
2016-04-19T01:59:55.532Z,68.43
2016-04-19T02:00:55.567Z,68.52
2016-04-19T02:01:55.570Z,69.67
2016-04-19T02:02:55.557Z,69.85
2016-04-19T02:03:55.575Z,69.85
2016-04-19T02:04:55.593Z,70.81
2016-04-19T02:05:55.612Z,70.14
2016-04-19T02:06:55.615Z,69.57
2016-04-19T02:07:55.632Z,68.52
2016-04-19T02:08:55.651Z,69.57
2016-04-19T02:09:55.654Z,70.05
2016-04-19T02:10:55.673Z,69.76
2016-04-19T02:11:55.690Z,70.14
2016-04-19T02:12:55.709Z,70.24
2016-04-19T02:13:55.711Z,70.43
2016-04-19T02:14:55.730Z,69.67
2016-04-19T02:15:55.747Z,70.24
2016-04-19T02:16:55.750Z,70.14
2016-04-19T02:17:55.769Z,70.05
2016-04-19T02:18:55.772Z,70.81
2016-04-19T02:19:55.789Z,70.62
2016-04-19T02:20:55.808Z,69.76
2016-04-19T02:21:55.827Z,69.38
2016-04-19T02:22:55.845Z,69.95
2016-04-19T02:23:55.847Z,70.05
2016-04-19T02:24:55.866Z,70.72
2016-04-19T02:25:55.869Z,70.05
2016-04-19T02:26:55.887Z,70.14
2016-04-19T02:27:55.921Z,70.2
2016-04-19T02:28:55.924Z,70.2
2016-04-19T02:29:55.927Z,69.73
2016-04-19T02:30:55.945Z,70.81
2016-04-19T02:31:55.963Z,70.33
2016-04-19T02:32:55.966Z,70.52
2016-04-19T02:33:55.985Z,70.2
2016-04-19T02:34:56.002Z,70.43
2016-04-19T02:35:56.021Z,70.2
2016-04-19T02:36:56.055Z,70.77
2016-04-19T02:37:56.043Z,70.49
2016-04-19T02:38:56.045Z,70.3
2016-04-19T02:39:56.063Z,70.01
2016-04-19T02:40:56.065Z,70.1
2016-04-19T02:41:56.084Z,70.39
2016-04-19T02:42:56.101Z,71.06
2016-04-19T02:43:56.120Z,70.01
2016-04-19T02:44:56.123Z,70.97
2016-04-19T02:45:56.142Z,70.01
2016-04-19T02:46:56.160Z,70.2
2016-04-19T02:47:56.163Z,70.77
2016-04-19T02:48:56.181Z,70.77
2016-04-19T02:49:56.200Z,70.39
2016-04-19T02:50:56.217Z,69.54
2016-04-19T02:51:56.220Z,70.39
2016-04-19T02:52:56.239Z,70.1
2016-04-19T02:53:56.241Z,70.39
2016-04-19T02:54:56.259Z,70.49
2016-04-19T02:55:56.277Z,70.87
2016-04-19T02:56:56.280Z,70.01
2016-04-19T02:57:56.314Z,69.82
2016-04-19T02:58:56.317Z,70.39
2016-04-19T02:59:56.320Z,70.2
2016-04-19T03:00:56.338Z,70.77
2016-04-19T03:01:56.357Z,70.1
2016-04-19T03:02:56.359Z,70.39
2016-04-19T03:03:56.377Z,70.49
2016-04-19T03:04:56.396Z,70.39
2016-04-19T03:05:56.413Z,70.3
2016-04-19T03:06:56.417Z,69.92
2016-04-19T03:07:56.435Z,70.2
2016-04-19T03:08:56.438Z,70.39
2016-04-19T03:09:56.456Z,70.39
2016-04-19T03:10:56.474Z,70.77
2016-04-19T03:11:56.493Z,71.15
2016-04-19T03:12:56.526Z,70.2
2016-04-19T03:13:56.514Z,70.01
2016-04-19T03:14:56.531Z,69.63
2016-04-19T03:15:56.550Z,69.44
2016-04-19T03:16:56.553Z,69.73
2016-04-19T03:17:56.571Z,69.73
2016-04-19T03:18:56.574Z,70.1
2016-04-19T03:19:56.609Z,70.3
2016-04-19T03:20:56.611Z,70.3
2016-04-19T03:21:56.614Z,70.87
2016-04-19T03:22:56.631Z,70.3
2016-04-19T03:23:56.650Z,70.77
2016-04-19T03:24:56.653Z,70.3
2016-04-19T03:25:56.671Z,70.1
2016-04-19T03:26:56.689Z,70.3
2016-04-19T03:27:56.707Z,70.1
2016-04-19T03:28:56.710Z,70.1
2016-04-19T03:29:56.713Z,69.82
2016-04-19T03:30:56.731Z,69.92
2016-04-19T03:31:56.750Z,69.92
2016-04-19T03:32:56.759Z,70.39
2016-04-19T03:33:56.852Z,70.1
2016-04-19T03:34:56.882Z,70.39
2016-04-19T03:35:56.928Z,71.15
2016-04-19T03:36:56.990Z,70.3
2016-04-19T03:37:57.048Z,69.35
2016-04-19T03:38:57.082Z,69.44
2016-04-19T03:39:57.116Z,69.92
2016-04-19T03:40:57.150Z,69.73
2016-04-19T03:41:57.168Z,69.63
2016-04-19T03:42:57.185Z,69.92
2016-04-19T03:43:57.209Z,70.1
2016-04-19T03:44:57.233Z,69.82
2016-04-19T03:45:57.240Z,69.06
2016-04-19T03:46:57.264Z,68.77
2016-04-19T03:47:57.287Z,69.06
2016-04-19T03:48:57.292Z,68.77
2016-04-19T03:49:57.313Z,67.63
2016-04-19T03:50:57.318Z,67.63
2016-04-19T03:51:57.337Z,67.82
2016-04-19T03:52:57.342Z,67.73
2016-04-19T03:53:57.376Z,68.3
2016-04-19T03:54:57.379Z,68.68
2016-04-19T03:55:57.430Z,68.68
2016-04-19T03:56:57.402Z,68.59
2016-04-19T03:57:57.421Z,68.68
2016-04-19T03:58:57.439Z,67.73
2016-04-19T03:59:57.442Z,67.44
2016-04-19T04:00:57.461Z,68.49
2016-04-19T04:01:57.464Z,69.25
2016-04-19T04:02:57.499Z,68.87
2016-04-19T04:03:57.502Z,68.59
2016-04-19T04:04:57.520Z,69.63
2016-04-19T04:05:57.523Z,69.35
2016-04-19T04:06:57.540Z,68.11
2016-04-19T04:07:57.543Z,68.59
2016-04-19T04:08:57.562Z,69.73
2016-04-19T04:09:57.581Z,70.01
2016-04-19T04:10:57.584Z,69.82
2016-04-19T04:11:57.601Z,69.73
2016-04-19T04:12:57.620Z,69.54
2016-04-19T04:13:57.639Z,69.92
2016-04-19T04:14:57.641Z,69.44
2016-04-19T04:15:57.644Z,69.92
2016-04-19T04:16:57.692Z,69.82
2016-04-19T04:17:57.695Z,69.54
2016-04-19T04:18:57.697Z,69.15
2016-04-19T04:19:57.716Z,69.73
2016-04-19T04:20:57.719Z,69.06
2016-04-19T04:21:57.753Z,68.65
2016-04-19T04:22:57.756Z,69.25
2016-04-19T04:23:57.775Z,68.77
2016-04-19T04:24:57.777Z,69.44
2016-04-19T04:25:57.796Z,68.77
2016-04-19T04:26:57.798Z,68.96
2016-04-19T04:27:57.816Z,69.73
2016-04-19T04:28:57.835Z,69.82
2016-04-19T04:29:57.852Z,69.82
2016-04-19T04:30:57.840Z,69.82
2016-04-19T04:31:57.857Z,69.44
2016-04-19T04:32:57.876Z,69.25
2016-04-19T04:33:57.879Z,68.87
2016-04-19T04:34:57.898Z,69.25
2016-04-19T04:35:57.901Z,69.63
2016-04-19T04:36:57.934Z,69.63
2016-04-19T04:37:57.937Z,69.15
2016-04-19T04:38:57.970Z,69.92
2016-04-19T04:39:57.958Z,69.44
2016-04-19T04:40:57.976Z,69.63
2016-04-19T04:41:57.979Z,69.44
2016-04-19T04:42:57.998Z,69.63
2016-04-19T04:43:58.015Z,69.44
2016-04-19T04:44:58.018Z,69.54
2016-04-19T04:45:58.036Z,69.92
2016-04-19T04:46:58.055Z,69.92
2016-04-19T04:47:58.058Z,69.44
2016-04-19T04:48:58.091Z,69.25
2016-04-19T04:49:58.078Z,70.01
2016-04-19T04:50:58.112Z,69.35
2016-04-19T04:51:58.115Z,68.87
2016-04-19T04:52:58.133Z,69.54
2016-04-19T04:53:58.136Z,69.92
2016-04-19T04:54:57.999Z,70.1
2016-04-19T04:55:58.173Z,69.44
2016-04-19T04:56:58.191Z,69.35
2016-04-19T04:57:58.210Z,68.49
2016-04-19T04:58:58.213Z,68.59
2016-04-19T04:59:58.246Z,69.82
2016-04-19T05:00:58.249Z,69.25
2016-04-19T05:01:58.251Z,69.92
2016-04-19T05:02:58.270Z,69.92
2016-04-19T05:03:58.287Z,69.82
2016-04-19T05:04:58.275Z,69.35
2016-04-19T05:05:58.293Z,69.35
2016-04-19T05:06:58.312Z,68.59
2016-04-19T05:07:58.330Z,68.59
2016-04-19T05:08:58.332Z,69.25
2016-04-19T05:09:58.351Z,69.82
2016-04-19T05:10:58.370Z,69.35
2016-04-19T05:11:58.372Z,69.73
2016-04-19T05:12:58.390Z,69.44
2016-04-19T05:13:58.409Z,69.54
2016-04-19T05:14:58.411Z,68.49
2016-04-19T05:15:58.431Z,68.49
2016-04-19T05:16:58.448Z,68.68
2016-04-19T05:17:58.451Z,68.68
2016-04-19T05:18:58.470Z,68.49
2016-04-19T05:19:58.487Z,69.15
2016-04-19T05:20:58.490Z,69.63
2016-04-19T05:21:58.524Z,69.82
2016-04-19T05:22:58.527Z,69.63
2016-04-19T05:23:58.622Z,68.87
2016-04-19T05:24:58.547Z,68.77
2016-04-19T05:25:58.550Z,68.21
2016-04-19T05:26:58.569Z,67.73
2016-04-19T05:27:58.587Z,67.63
2016-04-19T05:28:58.605Z,68.49
2016-04-19T05:29:58.608Z,68.77
2016-04-19T05:30:58.626Z,68.59
2016-04-19T05:31:58.629Z,68.4
2016-04-19T05:32:58.647Z,68.49
2016-04-19T05:33:58.682Z,69.06
2016-04-19T05:34:58.684Z,70.3
2016-04-19T05:35:58.687Z,69.73
2016-04-19T05:36:58.705Z,67.92
2016-04-19T05:37:58.723Z,67.54
2016-04-19T05:38:58.727Z,68.01
2016-04-19T05:39:58.745Z,68.3
2016-04-19T05:40:58.748Z,67.82
2016-04-19T05:41:58.781Z,67.82
2016-04-19T05:42:58.784Z,67.63
2016-04-19T05:43:58.802Z,67.44
2016-04-19T05:44:58.804Z,67.63
2016-04-19T05:45:58.823Z,67.44
2016-04-19T05:46:58.841Z,67.82
2016-04-19T05:47:58.845Z,67.63
2016-04-19T05:48:58.878Z,67.16
2016-04-19T05:49:58.881Z,67.07
2016-04-19T05:50:58.884Z,67.73
2016-04-19T05:51:58.903Z,67
2016-04-19T05:52:58.905Z,67.07
2016-04-19T05:53:58.922Z,66.49
2016-04-19T05:54:58.925Z,67.63
2016-04-19T05:55:58.944Z,66.81
2016-04-19T05:56:58.961Z,65.67
2016-04-19T05:57:59.043Z,66.72
2016-04-19T05:58:58.999Z,66.81
2016-04-19T05:59:59.017Z,67.47
2016-04-19T06:00:59.019Z,65.86
2016-04-19T06:01:59.038Z,66.72
2016-04-19T06:02:59.041Z,66.81
2016-04-19T06:03:59.059Z,65.58
2016-04-19T06:04:59.077Z,66.05
2016-04-19T06:05:59.095Z,66.24
2016-04-19T06:06:59.099Z,66.05
2016-04-19T06:07:59.101Z,65
2016-04-19T06:08:59.119Z,64.72
2016-04-19T06:09:59.137Z,64.9
2016-04-19T06:10:59.156Z,65.58
2016-04-19T06:11:59.159Z,65.19
2016-04-19T06:12:59.176Z,64.15
2016-04-19T06:13:59.195Z,64.62
2016-04-19T06:14:59.198Z,64.34
2016-04-19T06:15:59.232Z,64.34
2016-04-19T06:16:59.234Z,63.76
2016-04-19T06:17:59.253Z,64.72
2016-04-19T06:18:59.271Z,64.15
2016-04-19T06:19:59.290Z,63.57
2016-04-19T06:20:59.292Z,64.28
2016-04-19T06:21:59.294Z,64.65
2016-04-19T06:22:59.314Z,63.51
2016-04-19T06:23:59.331Z,63.89
2016-04-19T06:24:59.334Z,63.89
2016-04-19T06:25:59.353Z,64.37
2016-04-19T06:26:59.371Z,64.47
2016-04-19T06:27:59.405Z,63.99
2016-04-19T06:28:59.407Z,62.85
2016-04-19T06:29:59.426Z,63.04
2016-04-19T06:30:59.428Z,62.27
2016-04-19T06:31:59.431Z,61.99
2016-04-19T06:32:59.449Z,61.51
2016-04-19T06:33:59.499Z,62.37
2016-04-19T06:34:59.486Z,61.8
2016-04-19T06:35:59.505Z,61.22
2016-04-19T06:36:59.508Z,62.46
2016-04-19T06:37:59.526Z,61.07
2016-04-19T06:38:59.544Z,61.25
2016-04-19T06:39:59.546Z,60.59
2016-04-19T06:40:59.580Z,59.45
2016-04-19T06:41:59.582Z,59.83
2016-04-19T06:42:59.601Z,59.67
2016-04-19T06:43:59.619Z,57.38
2016-04-19T06:44:59.623Z,56.04
2016-04-19T06:45:59.640Z,57.48
2016-04-19T06:46:59.659Z,57.95
2016-04-19T06:47:59.662Z,56.43
2016-04-19T06:48:59.680Z,57.09
2016-04-19T06:49:59.698Z,57.19
2016-04-19T06:50:59.717Z,57.5
2016-04-19T06:51:59.735Z,56.93
2016-04-19T06:52:59.737Z,56.84
2016-04-19T06:53:59.755Z,54.83
2016-04-19T06:54:59.775Z,54.17
2016-04-19T06:55:59.792Z,55.21
2016-04-19T06:56:59.811Z,54.93
2016-04-19T06:57:59.830Z,55.21
2016-04-19T06:58:59.832Z,55.05
2016-04-19T06:59:59.866Z,54.38
2016-04-19T07:00:59.884Z,53.81
2016-04-19T07:01:59.886Z,54
2016-04-19T07:02:59.921Z,53.72
2016-04-19T07:03:59.907Z,53.14
2016-04-19T07:04:59.927Z,51.52
2016-04-19T07:05:59.944Z,51.74
2016-04-19T07:06:59.963Z,51.54
2016-04-19T07:07:59.981Z,50.62
2016-04-19T07:08:59.999Z,48.73
2016-04-19T07:10:00.017Z,47.39
2016-04-19T07:11:00.021Z,47.99
2016-04-19T07:12:00.038Z,46.75
2016-04-19T07:13:00.056Z,46.17
